sensor_id;sensor_type;location;lat;lon;timestamp;pressure;altitude;pressure_sealevel;temperature;humidity
37648;BME280;23490;53.656;10.076;2022-12-18T00:01:24;100138.84;;;-145.95;100.00
37648;BME280;23490;53.656;10.076;2022-12-18T00:03:51;100138.84;;;-145.95;100.00
37648;BME280;23490;53.656;10.076;2022-12-18T00:06:19;100163.63;;;-145.95;100.00
37648;BME280;23490;53.656;10.076;2022-12-18T00:08:45;100124.38;;;-145.95;100.00
37648;BME280;23490;53.656;10.076;2022-12-18T00:11:13;100149.16;;;-145.95;100.00
37648;BME280;23490;53.656;10.076;2022-12-18T00:13:39;100128.50;;;-145.95;100.00
37648;BME280;23490;53.656;10.076;2022-12-18T00:16:07;100112.00;;;-145.95;100.00
37648;BME280;23490;53.656;10.076;2022-12-18T00:18:33;100157.44;;;-145.95;100.00
37648;BME280;23490;53.656;10.076;2022-12-18T00:21:04;100169.81;;;-145.95;100.00
37648;BME280;23490;53.656;10.076;2022-12-18T00:23:30;100165.69;;;-145.95;100.00
37648;BME280;23490;53.656;10.076;2022-12-18T00:26:04;100134.72;;;-145.95;100.00
37648;BME280;23490;53.656;10.076;2022-12-18T00:28:31;100155.38;;;-145.95;100.00
37648;BME280;23490;53.656;10.076;2022-12-18T00:31:04;100134.72;;;-145.95;100.00
37648;BME280;23490;53.656;10.076;2022-12-18T00:33:30;100171.88;;;-145.95;100.00
37648;BME280;23490;53.656;10.076;2022-12-18T00:36:04;100134.72;;;-145.95;100.00
37648;BME280;23490;53.656;10.076;2022-12-18T00:38:30;100153.28;;;-145.95;100.00
37648;BME280;23490;53.656;10.076;2022-12-18T00:40:55;100128.50;;;-145.95;100.00
37648;BME280;23490;53.656;10.076;2022-12-18T00:43:21;100149.16;;;-145.95;100.00
37648;BME280;23490;53.656;10.076;2022-12-18T00:45:46;100182.22;;;-145.95;100.00
37648;BME280;23490;53.656;10.076;2022-12-18T00:48:11;100107.84;;;-145.95;100.00
37648;BME280;23490;53.656;10.076;2022-12-18T00:50:37;100140.91;;;-145.95;100.00
37648;BME280;23490;53.656;10.076;2022-12-18T00:53:03;100145.03;;;-145.95;100.00
37648;BME280;23490;53.656;10.076;2022-12-18T00:55:28;100153.28;;;-145.95;100.00
37648;BME280;23490;53.656;10.076;2022-12-18T00:57:54;100103.72;;;-145.95;100.00
37648;BME280;23490;53.656;10.076;2022-12-18T01:00:20;100124.38;;;-145.95;100.00
37648;BME280;23490;53.656;10.076;2022-12-18T01:02:45;100140.91;;;-145.95;100.00
37648;BME280;23490;53.656;10.076;2022-12-18T01:05:12;100149.16;;;-145.95;100.00
37648;BME280;23490;53.656;10.076;2022-12-18T01:07:38;100140.91;;;-145.95;100.00
37648;BME280;23490;53.656;10.076;2022-12-18T01:10:04;100178.09;;;-145.95;100.00
37648;BME280;23490;53.656;10.076;2022-12-18T01:12:30;100103.72;;;-145.95;100.00
37648;BME280;23490;53.656;10.076;2022-12-18T01:14:56;100112.00;;;-145.95;100.00
37648;BME280;23490;53.656;10.076;2022-12-18T01:17:21;100163.63;;;-145.95;100.00
37648;BME280;23490;53.656;10.076;2022-12-18T01:19:47;100157.44;;;-145.95;100.00
37648;BME280;23490;53.656;10.076;2022-12-18T01:22:12;100132.66;;;-145.95;100.00
37648;BME280;23490;53.656;10.076;2022-12-18T01:24:38;100142.97;;;-145.95;100.00
37648;BME280;23490;53.656;10.076;2022-12-18T01:27:03;100120.25;;;-145.95;100.00
37648;BME280;23490;53.656;10.076;2022-12-18T01:29:28;100145.03;;;-145.95;100.00
37648;BME280;23490;53.656;10.076;2022-12-18T01:31:55;100182.22;;;-145.95;100.00
37648;BME280;23490;53.656;10.076;2022-12-18T01:34:21;100116.13;;;-145.95;100.00
37648;BME280;23490;53.656;10.076;2022-12-18T01:36:46;100163.63;;;-145.95;100.00
37648;BME280;23490;53.656;10.076;2022-12-18T01:39:13;100149.16;;;-145.95;100.00
37648;BME280;23490;53.656;10.076;2022-12-18T01:41:39;100128.50;;;-145.95;100.00
37648;BME280;23490;53.656;10.076;2022-12-18T01:44:56;100124.38;;;-145.95;100.00
37648;BME280;23490;53.656;10.076;2022-12-18T01:47:26;100136.78;;;-145.95;100.00
37648;BME280;23490;53.656;10.076;2022-12-18T01:49:53;100178.09;;;-145.95;100.00
37648;BME280;23490;53.656;10.076;2022-12-18T01:52:19;100132.66;;;-145.95;100.00
37648;BME280;23490;53.656;10.076;2022-12-18T01:54:46;100149.16;;;-145.95;100.00
37648;BME280;23490;53.656;10.076;2022-12-18T01:57:12;100145.03;;;-145.95;99.95
37648;BME280;23490;53.656;10.076;2022-12-18T01:59:39;100169.81;;;-145.95;100.00
37648;BME280;23490;53.656;10.076;2022-12-18T02:02:07;100153.28;;;-145.95;99.68
37648;BME280;23490;53.656;10.076;2022-12-18T02:04:33;100165.69;;;-145.95;100.00
37648;BME280;23490;53.656;10.076;2022-12-18T02:07:10;100155.38;;;-145.95;100.00
37648;BME280;23490;53.656;10.076;2022-12-18T02:09:49;100140.91;;;-145.95;100.00
37648;BME280;23490;53.656;10.076;2022-12-18T02:12:22;100128.50;;;-145.95;99.97
37648;BME280;23490;53.656;10.076;2022-12-18T02:14:56;100169.81;;;-145.95;99.86
37648;BME280;23490;53.656;10.076;2022-12-18T02:17:39;100149.16;;;-145.95;100.00
37648;BME280;23490;53.656;10.076;2022-12-18T02:20:40;100128.50;;;-145.95;100.00
37648;BME280;23490;53.656;10.076;2022-12-18T02:26:13;100149.16;;;-145.95;99.82
37648;BME280;23490;53.656;10.076;2022-12-18T02:31:36;100107.84;;;-145.95;99.90
37648;BME280;23490;53.656;10.076;2022-12-18T02:34:04;100136.78;;;-145.95;99.96
37648;BME280;23490;53.656;10.076;2022-12-18T02:36:32;100140.91;;;-145.95;99.65
37648;BME280;23490;53.656;10.076;2022-12-18T02:38:59;100178.09;;;-145.95;99.85
37648;BME280;23490;53.656;10.076;2022-12-18T02:41:26;100124.38;;;-145.95;100.00
37648;BME280;23490;53.656;10.076;2022-12-18T02:43:57;100112.00;;;-145.95;99.88
37648;BME280;23490;53.656;10.076;2022-12-18T02:46:33;100171.88;;;-145.95;99.99
37648;BME280;23490;53.656;10.076;2022-12-18T02:49:21;100153.28;;;-145.95;99.80
37648;BME280;23490;53.656;10.076;2022-12-18T02:52:05;100136.78;;;-145.95;100.00
37648;BME280;23490;53.656;10.076;2022-12-18T02:57:33;100149.16;;;-145.95;100.00
37648;BME280;23490;53.656;10.076;2022-12-18T03:08:23;100128.50;;;-145.95;99.94
37648;BME280;23490;53.656;10.076;2022-12-18T03:13:35;100165.69;;;-145.95;100.00
37648;BME280;23490;53.656;10.076;2022-12-18T03:16:03;100159.50;;;-145.95;100.00
37648;BME280;23490;53.656;10.076;2022-12-18T03:18:54;100149.16;;;-145.95;100.00
37648;BME280;23490;53.656;10.076;2022-12-18T03:21:27;100120.25;;;-145.95;99.72
37648;BME280;23490;53.656;10.076;2022-12-18T03:23:53;100157.44;;;-145.95;99.83
37648;BME280;23490;53.656;10.076;2022-12-18T03:26:24;100153.28;;;-145.95;99.98
37648;BME280;23490;53.656;10.076;2022-12-18T03:28:53;100107.84;;;-145.95;99.80
37648;BME280;23490;53.656;10.076;2022-12-18T03:31:22;100161.56;;;-145.95;99.37
37648;BME280;23490;53.656;10.076;2022-12-18T03:33:57;100151.22;;;-145.95;99.52
37648;BME280;23490;53.656;10.076;2022-12-18T03:36:24;100173.94;;;-145.95;99.75
37648;BME280;23490;53.656;10.076;2022-12-18T03:38:50;100103.72;;;-145.95;99.10
37648;BME280;23490;53.656;10.076;2022-12-18T03:41:33;100142.97;;;-145.95;99.35
37648;BME280;23490;53.656;10.076;2022-12-18T03:44:06;100153.28;;;-145.95;99.19
37648;BME280;23490;53.656;10.076;2022-12-18T03:47:04;100153.28;;;-145.95;99.10
37648;BME280;23490;53.656;10.076;2022-12-18T03:49:36;100184.28;;;-145.95;99.08
37648;BME280;23490;53.656;10.076;2022-12-18T03:52:15;100173.94;;;-145.95;99.25
37648;BME280;23490;53.656;10.076;2022-12-18T03:54:45;100112.00;;;-145.95;99.12
37648;BME280;23490;53.656;10.076;2022-12-18T03:57:17;100153.28;;;-145.95;99.45
37648;BME280;23490;53.656;10.076;2022-12-18T03:59:45;100107.84;;;-145.95;99.13
37648;BME280;23490;53.656;10.076;2022-12-18T04:02:13;100165.69;;;-145.95;99.05
37648;BME280;23490;53.656;10.076;2022-12-18T04:04:40;100157.44;;;-145.95;99.00
37648;BME280;23490;53.656;10.076;2022-12-18T04:07:07;100136.78;;;-145.95;98.97
37648;BME280;23490;53.656;10.076;2022-12-18T04:09:35;100128.50;;;-145.95;99.16
37648;BME280;23490;53.656;10.076;2022-12-18T04:12:01;100132.66;;;-145.95;98.96
37648;BME280;23490;53.656;10.076;2022-12-18T04:14:26;100128.50;;;-145.95;99.03
37648;BME280;23490;53.656;10.076;2022-12-18T04:16:52;100140.91;;;-145.95;98.88
37648;BME280;23490;53.656;10.076;2022-12-18T04:19:17;100147.09;;;-145.95;98.92
37648;BME280;23490;53.656;10.076;2022-12-18T04:21:42;100132.66;;;-145.95;98.65
37648;BME280;23490;53.656;10.076;2022-12-18T04:24:08;100149.16;;;-145.95;98.82
37648;BME280;23490;53.656;10.076;2022-12-18T04:26:34;100157.44;;;-145.95;99.14
37648;BME280;23490;53.656;10.076;2022-12-18T04:28:59;100171.88;;;-145.95;99.01
37648;BME280;23490;53.656;10.076;2022-12-18T04:31:24;100145.03;;;-145.95;98.95
37648;BME280;23490;53.656;10.076;2022-12-18T04:33:50;100128.50;;;-145.95;99.13
37648;BME280;23490;53.656;10.076;2022-12-18T04:36:15;100161.56;;;-145.95;99.20
37648;BME280;23490;53.656;10.076;2022-12-18T04:38:40;100103.72;;;-145.95;99.20
37648;BME280;23490;53.656;10.076;2022-12-18T04:41:05;100124.38;;;-145.95;99.58
37648;BME280;23490;53.656;10.076;2022-12-18T04:43:31;100138.84;;;-145.95;99.53
37648;BME280;23490;53.656;10.076;2022-12-18T04:46:10;100178.09;;;-145.95;99.29
37648;BME280;23490;53.656;10.076;2022-12-18T04:48:35;100107.84;;;-145.95;99.22
37648;BME280;23490;53.656;10.076;2022-12-18T04:51:01;100116.13;;;-145.95;99.32
37648;BME280;23490;53.656;10.076;2022-12-18T04:53:27;100186.34;;;-145.95;99.59
37648;BME280;23490;53.656;10.076;2022-12-18T04:56:20;100173.94;;;-145.95;99.59
37648;BME280;23490;53.656;10.076;2022-12-18T04:58:45;100132.66;;;-145.95;99.70
37648;BME280;23490;53.656;10.076;2022-12-18T05:01:12;100182.22;;;-145.95;99.85
37648;BME280;23490;53.656;10.076;2022-12-18T05:03:39;100188.41;;;-145.95;99.85
37648;BME280;23490;53.656;10.076;2022-12-18T05:06:05;100130.56;;;-145.95;99.43
37648;BME280;23490;53.656;10.076;2022-12-18T05:08:31;100145.03;;;-145.95;99.39
37648;BME280;23490;53.656;10.076;2022-12-18T05:11:12;100132.66;;;-145.95;99.53
37648;BME280;23490;53.656;10.076;2022-12-18T05:13:39;100145.03;;;-145.95;99.36
37648;BME280;23490;53.656;10.076;2022-12-18T05:16:05;100140.91;;;-145.95;99.48
37648;BME280;23490;53.656;10.076;2022-12-18T05:18:30;100178.09;;;-145.95;99.20
37648;BME280;23490;53.656;10.076;2022-12-18T05:20:56;100145.03;;;-145.95;99.51
37648;BME280;23490;53.656;10.076;2022-12-18T05:23:23;100149.16;;;-145.95;99.28
37648;BME280;23490;53.656;10.076;2022-12-18T05:26:02;100140.91;;;-145.95;99.45
37648;BME280;23490;53.656;10.076;2022-12-18T05:28:30;100132.66;;;-145.95;99.41
37648;BME280;23490;53.656;10.076;2022-12-18T05:30:57;100153.28;;;-145.95;99.35
37648;BME280;23490;53.656;10.076;2022-12-18T05:33:25;100163.63;;;-145.95;99.59
37648;BME280;23490;53.656;10.076;2022-12-18T05:35:59;100112.00;;;-145.95;99.62
37648;BME280;23490;53.656;10.076;2022-12-18T05:38:26;100149.16;;;-145.95;99.66
37648;BME280;23490;53.656;10.076;2022-12-18T05:40:52;100124.38;;;-145.95;99.63
37648;BME280;23490;53.656;10.076;2022-12-18T05:43:18;100145.03;;;-145.95;99.96
37648;BME280;23490;53.656;10.076;2022-12-18T05:45:44;100153.28;;;-145.95;99.80
37648;BME280;23490;53.656;10.076;2022-12-18T05:48:12;100128.50;;;-145.95;99.70
37648;BME280;23490;53.656;10.076;2022-12-18T05:50:40;100153.28;;;-145.95;99.38
37648;BME280;23490;53.656;10.076;2022-12-18T05:53:06;100140.91;;;-145.95;99.59
37648;BME280;23490;53.656;10.076;2022-12-18T05:55:36;100140.91;;;-145.95;99.73
37648;BME280;23490;53.656;10.076;2022-12-18T05:58:03;100159.50;;;-145.95;99.86
37648;BME280;23490;53.656;10.076;2022-12-18T06:00:30;100138.84;;;-145.95;99.60
37648;BME280;23490;53.656;10.076;2022-12-18T06:02:55;100120.25;;;-145.95;99.41
37648;BME280;23490;53.656;10.076;2022-12-18T06:05:20;100145.03;;;-145.95;99.53
37648;BME280;23490;53.656;10.076;2022-12-18T06:07:46;100161.56;;;-145.95;99.40
37648;BME280;23490;53.656;10.076;2022-12-18T06:10:11;100149.16;;;-145.95;99.90
37648;BME280;23490;53.656;10.076;2022-12-18T06:12:37;100140.91;;;-145.95;99.61
37648;BME280;23490;53.656;10.076;2022-12-18T06:15:02;100136.78;;;-145.95;99.48
37648;BME280;23490;53.656;10.076;2022-12-18T06:17:29;100128.50;;;-145.95;99.96
37648;BME280;23490;53.656;10.076;2022-12-18T06:19:54;100136.78;;;-145.95;99.66
37648;BME280;23490;53.656;10.076;2022-12-18T06:22:20;100145.03;;;-145.95;99.80
37648;BME280;23490;53.656;10.076;2022-12-18T06:24:45;100116.13;;;-145.95;99.95
37648;BME280;23490;53.656;10.076;2022-12-18T06:27:10;100112.00;;;-145.95;99.97
37648;BME280;23490;53.656;10.076;2022-12-18T06:29:36;100153.28;;;-145.95;99.73
37648;BME280;23490;53.656;10.076;2022-12-18T06:32:01;100136.78;;;-145.95;99.85
37648;BME280;23490;53.656;10.076;2022-12-18T06:34:26;100159.50;;;-145.95;100.00
37648;BME280;23490;53.656;10.076;2022-12-18T06:36:52;100149.16;;;-145.95;99.75
37648;BME280;23490;53.656;10.076;2022-12-18T06:39:17;100153.28;;;-145.95;99.89
37648;BME280;23490;53.656;10.076;2022-12-18T06:41:42;100116.13;;;-145.95;100.00
37648;BME280;23490;53.656;10.076;2022-12-18T06:44:08;100140.91;;;-145.95;100.00
37648;BME280;23490;53.656;10.076;2022-12-18T06:46:33;100136.78;;;-145.95;100.00
37648;BME280;23490;53.656;10.076;2022-12-18T06:48:59;100173.94;;;-145.95;100.00
37648;BME280;23490;53.656;10.076;2022-12-18T06:51:24;100145.03;;;-145.95;100.00
37648;BME280;23490;53.656;10.076;2022-12-18T06:53:50;100126.44;;;-145.95;100.00
37648;BME280;23490;53.656;10.076;2022-12-18T06:56:15;100138.84;;;-145.95;99.85
37648;BME280;23490;53.656;10.076;2022-12-18T06:58:41;100136.78;;;-145.95;99.93
37648;BME280;23490;53.656;10.076;2022-12-18T07:01:09;100159.50;;;-145.95;100.00
37648;BME280;23490;53.656;10.076;2022-12-18T07:03:35;100116.13;;;-145.95;99.75
37648;BME280;23490;53.656;10.076;2022-12-18T07:06:01;100147.09;;;-145.95;99.79
37648;BME280;23490;53.656;10.076;2022-12-18T07:08:28;100122.31;;;-145.95;99.70
37648;BME280;23490;53.656;10.076;2022-12-18T07:10:54;100173.94;;;-145.95;99.72
37648;BME280;23490;53.656;10.076;2022-12-18T07:13:19;100169.81;;;-145.95;99.73
37648;BME280;23490;53.656;10.076;2022-12-18T07:15:44;100149.16;;;-145.95;99.53
37648;BME280;23490;53.656;10.076;2022-12-18T07:18:10;100142.97;;;-145.95;99.42
37648;BME280;23490;53.656;10.076;2022-12-18T07:20:36;100140.91;;;-145.95;99.47
37648;BME280;23490;53.656;10.076;2022-12-18T07:23:05;100128.50;;;-145.95;99.27
37648;BME280;23490;53.656;10.076;2022-12-18T07:25:34;100120.25;;;-145.95;99.52
37648;BME280;23490;53.656;10.076;2022-12-18T07:27:59;100132.66;;;-145.95;99.03
37648;BME280;23490;53.656;10.076;2022-12-18T07:30:25;100153.28;;;-145.95;98.99
37648;BME280;23490;53.656;10.076;2022-12-18T07:32:50;100163.63;;;-145.95;99.45
37648;BME280;23490;53.656;10.076;2022-12-18T07:35:15;100107.84;;;-145.95;99.38
37648;BME280;23490;53.656;10.076;2022-12-18T07:37:41;100169.81;;;-145.95;99.29
37648;BME280;23490;53.656;10.076;2022-12-18T07:40:08;100140.91;;;-145.95;98.88
37648;BME280;23490;53.656;10.076;2022-12-18T07:42:33;100169.81;;;-145.95;98.84
37648;BME280;23490;53.656;10.076;2022-12-18T07:45:00;100134.72;;;-145.95;99.18
37648;BME280;23490;53.656;10.076;2022-12-18T07:47:26;100136.78;;;-145.95;98.92
37648;BME280;23490;53.656;10.076;2022-12-18T07:49:51;100136.78;;;-145.95;98.95
37648;BME280;23490;53.656;10.076;2022-12-18T07:52:16;100132.66;;;-145.95;98.88
37648;BME280;23490;53.656;10.076;2022-12-18T07:54:42;100155.38;;;-145.95;99.08
37648;BME280;23490;53.656;10.076;2022-12-18T07:57:08;100147.09;;;-145.95;99.23
37648;BME280;23490;53.656;10.076;2022-12-18T07:59:34;100112.00;;;-145.95;99.04
37648;BME280;23490;53.656;10.076;2022-12-18T08:01:59;100134.72;;;-145.95;99.06
37648;BME280;23490;53.656;10.076;2022-12-18T08:04:25;100136.78;;;-145.95;98.57
37648;BME280;23490;53.656;10.076;2022-12-18T08:06:50;100178.09;;;-145.95;98.44
37648;BME280;23490;53.656;10.076;2022-12-18T08:09:16;100165.69;;;-145.95;98.25
37648;BME280;23490;53.656;10.076;2022-12-18T08:11:41;100136.78;;;-145.95;97.92
37648;BME280;23490;53.656;10.076;2022-12-18T08:14:06;100157.44;;;-145.95;98.12
37648;BME280;23490;53.656;10.076;2022-12-18T08:16:32;100169.81;;;-145.95;98.15
37648;BME280;23490;53.656;10.076;2022-12-18T08:18:57;100161.56;;;-145.95;97.97
37648;BME280;23490;53.656;10.076;2022-12-18T08:21:25;100136.78;;;-145.95;98.22
37648;BME280;23490;53.656;10.076;2022-12-18T08:23:52;100136.78;;;-145.95;97.61
37648;BME280;23490;53.656;10.076;2022-12-18T08:26:19;100149.16;;;-145.95;97.74
37648;BME280;23490;53.656;10.076;2022-12-18T08:28:44;100149.16;;;-145.95;97.70
37648;BME280;23490;53.656;10.076;2022-12-18T08:31:10;100112.00;;;-145.95;97.33
37648;BME280;23490;53.656;10.076;2022-12-18T08:33:37;100103.72;;;-145.95;97.44
37648;BME280;23490;53.656;10.076;2022-12-18T08:36:04;100128.50;;;-145.95;97.51
37648;BME280;23490;53.656;10.076;2022-12-18T08:38:29;100153.28;;;-145.95;97.20
37648;BME280;23490;53.656;10.076;2022-12-18T08:41:03;100140.91;;;-145.95;97.26
37648;BME280;23490;53.656;10.076;2022-12-18T08:43:29;100157.44;;;-145.95;97.04
37648;BME280;23490;53.656;10.076;2022-12-18T08:46:20;100145.03;;;-145.95;96.84
37648;BME280;23490;53.656;10.076;2022-12-18T08:48:46;100132.66;;;-145.95;96.82
37648;BME280;23490;53.656;10.076;2022-12-18T08:51:12;100109.91;;;-145.95;96.75
37648;BME280;23490;53.656;10.076;2022-12-18T08:53:38;100159.50;;;-145.95;96.49
37648;BME280;23490;53.656;10.076;2022-12-18T08:56:04;100145.03;;;-145.95;96.46
37648;BME280;23490;53.656;10.076;2022-12-18T08:58:30;100138.84;;;-145.95;96.11
37648;BME280;23490;53.656;10.076;2022-12-18T09:01:08;100153.28;;;-145.95;96.35
37648;BME280;23490;53.656;10.076;2022-12-18T09:03:35;100145.03;;;-145.95;95.91
37648;BME280;23490;53.656;10.076;2022-12-18T09:06:00;100140.91;;;-145.95;95.91
37648;BME280;23490;53.656;10.076;2022-12-18T09:08:26;100178.09;;;-145.95;95.76
37648;BME280;23490;53.656;10.076;2022-12-18T09:10:51;100149.16;;;-145.95;95.28
37648;BME280;23490;53.656;10.076;2022-12-18T09:13:17;100145.03;;;-145.95;95.11
37648;BME280;23490;53.656;10.076;2022-12-18T09:15:44;100132.66;;;-145.95;93.98
37648;BME280;23490;53.656;10.076;2022-12-18T09:18:10;100116.13;;;-145.95;93.77
37648;BME280;23490;53.656;10.076;2022-12-18T09:20:36;100161.56;;;-145.95;93.97
37648;BME280;23490;53.656;10.076;2022-12-18T09:23:02;100151.22;;;-145.95;93.59
37648;BME280;23490;53.656;10.076;2022-12-18T09:25:29;100099.59;;;-145.95;93.72
37648;BME280;23490;53.656;10.076;2022-12-18T09:27:58;100138.84;;;-145.95;93.03
37648;BME280;23490;53.656;10.076;2022-12-18T09:30:24;100161.56;;;-145.95;93.00
37648;BME280;23490;53.656;10.076;2022-12-18T09:32:49;100161.56;;;-145.95;92.42
37648;BME280;23490;53.656;10.076;2022-12-18T09:35:14;100118.19;;;-145.95;92.71
37648;BME280;23490;53.656;10.076;2022-12-18T09:37:40;100157.44;;;-145.95;92.37
37648;BME280;23490;53.656;10.076;2022-12-18T09:40:16;100112.00;;;-145.95;92.37
37648;BME280;23490;53.656;10.076;2022-12-18T09:42:45;100091.34;;;-145.95;92.13
37648;BME280;23490;53.656;10.076;2022-12-18T09:45:14;100112.00;;;-145.95;91.60
37648;BME280;23490;53.656;10.076;2022-12-18T09:47:42;100124.38;;;-145.95;90.63
37648;BME280;23490;53.656;10.076;2022-12-18T09:50:25;100126.44;;;-145.95;90.40
37648;BME280;23490;53.656;10.076;2022-12-18T09:52:54;100114.06;;;-145.95;89.79
37648;BME280;23490;53.656;10.076;2022-12-18T09:55:34;100145.03;;;-145.95;91.00
37648;BME280;23490;53.656;10.076;2022-12-18T09:58:40;100116.13;;;-145.95;89.39
37648;BME280;23490;53.656;10.076;2022-12-18T10:01:17;100132.66;;;-145.95;89.69
37648;BME280;23490;53.656;10.076;2022-12-18T10:03:43;100095.47;;;-145.95;89.69
37648;BME280;23490;53.656;10.076;2022-12-18T10:06:14;100116.13;;;-145.95;89.06
37648;BME280;23490;53.656;10.076;2022-12-18T10:08:49;100126.44;;;-145.95;89.24
37648;BME280;23490;53.656;10.076;2022-12-18T10:14:29;100095.47;;;-145.95;88.32
37648;BME280;23490;53.656;10.076;2022-12-18T10:17:07;100112.00;;;-145.95;86.83
37648;BME280;23490;53.656;10.076;2022-12-18T10:23:10;100120.25;;;-145.95;85.82
37648;BME280;23490;53.656;10.076;2022-12-18T10:25:50;100112.00;;;-145.95;85.54
37648;BME280;23490;53.656;10.076;2022-12-18T10:28:19;100078.94;;;-145.95;85.70
37648;BME280;23490;53.656;10.076;2022-12-18T10:30:45;100083.06;;;-145.95;85.81
37648;BME280;23490;53.656;10.076;2022-12-18T10:33:19;100101.66;;;-145.95;86.12
37648;BME280;23490;53.656;10.076;2022-12-18T10:35:47;100087.19;;;-145.95;83.19
37648;BME280;23490;53.656;10.076;2022-12-18T10:40:56;100107.84;;;-145.95;83.38
37648;BME280;23490;53.656;10.076;2022-12-18T10:48:29;100083.06;;;-145.95;84.46
37648;BME280;23490;53.656;10.076;2022-12-18T10:50:56;100078.94;;;-145.95;82.79
37648;BME280;23490;53.656;10.076;2022-12-18T10:53:27;100064.47;;;-145.95;81.38
37648;BME280;23490;53.656;10.076;2022-12-18T10:55:55;100054.16;;;-145.95;81.92
37648;BME280;23490;53.656;10.076;2022-12-18T10:58:33;100074.81;;;-145.95;81.21
37648;BME280;23490;53.656;10.076;2022-12-18T11:01:20;100062.41;;;-145.95;80.85
37648;BME280;23490;53.656;10.076;2022-12-18T11:06:22;99948.81;;;-145.95;78.30
37648;BME280;23490;53.656;10.076;2022-12-18T11:09:04;99942.59;;;-145.95;78.08
37648;BME280;23490;53.656;10.076;2022-12-18T11:11:31;99959.13;;;-145.95;76.63
37648;BME280;23490;53.656;10.076;2022-12-18T11:16:26;99963.25;;;-145.95;73.70
37648;BME280;23490;53.656;10.076;2022-12-18T11:18:53;99967.41;;;-145.95;73.48
37648;BME280;23490;53.656;10.076;2022-12-18T11:21:18;100025.22;;;-145.95;72.67
37648;BME280;23490;53.656;10.076;2022-12-18T11:23:51;99963.25;;;-145.95;75.58
37648;BME280;23490;53.656;10.076;2022-12-18T11:26:17;99971.53;;;-145.95;75.22
37648;BME280;23490;53.656;10.076;2022-12-18T11:28:46;100041.75;;;-145.95;74.71
37648;BME280;23490;53.656;10.076;2022-12-18T11:31:16;100012.84;;;-145.95;74.18
37648;BME280;23490;53.656;10.076;2022-12-18T11:33:46;100012.84;;;-145.95;75.43
37648;BME280;23490;53.656;10.076;2022-12-18T11:36:14;99981.84;;;-145.95;76.48
37648;BME280;23490;53.656;10.076;2022-12-18T11:38:40;100019.03;;;-145.95;74.76
37648;BME280;23490;53.656;10.076;2022-12-18T11:44:13;100033.50;;;-145.95;76.86
37648;BME280;23490;53.656;10.076;2022-12-18T11:46:46;100037.63;;;-145.95;75.70
37648;BME280;23490;53.656;10.076;2022-12-18T11:49:22;100029.38;;;-145.95;75.24
37648;BME280;23490;53.656;10.076;2022-12-18T11:52:03;100037.63;;;-145.95;75.98
37648;BME280;23490;53.656;10.076;2022-12-18T11:54:30;100033.50;;;-145.95;75.69
37648;BME280;23490;53.656;10.076;2022-12-18T11:57:01;100033.50;;;-145.95;76.54
37648;BME280;23490;53.656;10.076;2022-12-18T12:07:58;100019.03;;;-145.95;76.40
37648;BME280;23490;53.656;10.076;2022-12-18T12:21:28;100045.88;;;-145.95;75.53
37648;BME280;23490;53.656;10.076;2022-12-18T12:24:26;100037.63;;;-145.95;77.16
37648;BME280;23490;53.656;10.076;2022-12-18T12:29:54;100039.69;;;-145.95;75.03
37648;BME280;23490;53.656;10.076;2022-12-18T12:38:19;100043.81;;;-145.95;76.03
37648;BME280;23490;53.656;10.076;2022-12-18T12:41:08;100062.41;;;-145.95;75.26
37648;BME280;23490;53.656;10.076;2022-12-18T12:44:00;100012.84;;;-145.95;75.78
37648;BME280;23490;53.656;10.076;2022-12-18T12:46:27;100021.09;;;-145.95;76.64
37648;BME280;23490;53.656;10.076;2022-12-18T12:49:11;100054.16;;;-145.95;76.28
37648;BME280;23490;53.656;10.076;2022-12-18T12:51:40;100037.63;;;-145.95;76.46
37648;BME280;23490;53.656;10.076;2022-12-18T12:54:15;100050.03;;;-145.95;76.04
37648;BME280;23490;53.656;10.076;2022-12-18T12:57:02;100041.75;;;-145.95;75.45
37648;BME280;23490;53.656;10.076;2022-12-18T12:59:52;100029.38;;;-145.95;76.11
37648;BME280;23490;53.656;10.076;2022-12-18T13:02:27;100021.09;;;-145.95;74.82
37648;BME280;23490;53.656;10.076;2022-12-18T13:07:35;100031.44;;;-145.95;74.38
37648;BME280;23490;53.656;10.076;2022-12-18T13:20:35;100037.63;;;-145.95;75.89
37648;BME280;23490;53.656;10.076;2022-12-18T13:34:27;100043.81;;;-145.95;74.76
37648;BME280;23490;53.656;10.076;2022-12-18T13:37:41;100050.03;;;-145.95;75.02
37648;BME280;23490;53.656;10.076;2022-12-18T13:39:41;100041.75;;;-145.95;75.38
37648;BME280;23490;53.656;10.076;2022-12-18T13:44:37;100037.63;;;-145.95;75.87
37648;BME280;23490;53.656;10.076;2022-12-18T13:47:04;100033.50;;;-145.95;75.24
37648;BME280;23490;53.656;10.076;2022-12-18T13:49:43;100070.66;;;-145.95;76.14
37648;BME280;23490;53.656;10.076;2022-12-18T13:52:18;100056.22;;;-145.95;76.49
37648;BME280;23490;53.656;10.076;2022-12-18T13:54:48;100074.81;;;-145.95;76.33
37648;BME280;23490;53.656;10.076;2022-12-18T13:57:36;100058.28;;;-145.95;76.40
37648;BME280;23490;53.656;10.076;2022-12-18T14:00:26;100050.03;;;-145.95;76.92
37648;BME280;23490;53.656;10.076;2022-12-18T14:02:54;100037.63;;;-145.95;77.05
37648;BME280;23490;53.656;10.076;2022-12-18T14:05:29;100058.28;;;-145.95;77.62
37648;BME280;23490;53.656;10.076;2022-12-18T14:08:00;100025.22;;;-145.95;77.95